sensor_id;sensor_type;location;lat;lon;timestamp;pressure;altitude;pressure_sealevel;temperature;humidity
64115;BME280;62188;35.640;139.748;2023-05-20T00:00:26;100696.70;;;23.14;46.76
64115;BME280;62188;35.640;139.748;2023-05-20T00:02:52;100699.77;;;23.14;46.85
64115;BME280;62188;35.640;139.748;2023-05-20T00:05:17;100708.03;;;23.24;47.04
64115;BME280;62188;35.640;139.748;2023-05-20T00:07:42;100709.35;;;23.35;46.69
64115;BME280;62188;35.640;139.748;2023-05-20T00:10:09;100711.89;;;23.43;46.41
64115;BME280;62188;35.640;139.748;2023-05-20T00:12:34;100716.48;;;23.48;46.43
64115;BME280;62188;35.640;139.748;2023-05-20T00:14:59;100705.80;;;23.32;46.51
64115;BME280;62188;35.640;139.748;2023-05-20T00:17:25;100718.28;;;23.18;46.81
64115;BME280;62188;35.640;139.748;2023-05-20T00:19:51;100724.27;;;23.24;46.68
64115;BME280;62188;35.640;139.748;2023-05-20T00:22:16;100729.30;;;23.24;46.82
64115;BME280;62188;35.640;139.748;2023-05-20T00:24:41;100733.84;;;23.19;47.11
64115;BME280;62188;35.640;139.748;2023-05-20T00:27:06;100736.06;;;23.23;47.29
64115;BME280;62188;35.640;139.748;2023-05-20T00:29:32;100739.05;;;23.38;47.20
64115;BME280;62188;35.640;139.748;2023-05-20T00:31:57;100747.68;;;23.41;47.69
64115;BME280;62188;35.640;139.748;2023-05-20T00:34:22;100752.32;;;23.46;47.70
64115;BME280;62188;35.640;139.748;2023-05-20T00:36:47;100755.25;;;23.40;46.95
64115;BME280;62188;35.640;139.748;2023-05-20T00:39:13;100758.02;;;23.37;47.25
64115;BME280;62188;35.640;139.748;2023-05-20T00:41:38;100758.92;;;23.44;46.87
64115;BME280;62188;35.640;139.748;2023-05-20T00:44:04;100760.98;;;23.49;46.79
64115;BME280;62188;35.640;139.748;2023-05-20T00:46:29;100759.29;;;23.53;46.81
64115;BME280;62188;35.640;139.748;2023-05-20T00:48:55;100761.96;;;23.49;46.75
64115;BME280;62188;35.640;139.748;2023-05-20T00:51:21;100761.06;;;23.56;46.40
64115;BME280;62188;35.640;139.748;2023-05-20T00:53:46;100762.32;;;23.57;46.63
64115;BME280;62188;35.640;139.748;2023-05-20T00:56:12;100769.35;;;23.56;46.38
64115;BME280;62188;35.640;139.748;2023-05-20T00:58:37;100781.66;;;23.19;46.30
64115;BME280;62188;35.640;139.748;2023-05-20T01:01:02;100785.90;;;23.21;46.71
64115;BME280;62188;35.640;139.748;2023-05-20T01:03:28;100794.47;;;23.25;46.92
64115;BME280;62188;35.640;139.748;2023-05-20T01:05:53;100800.88;;;23.34;46.67
64115;BME280;62188;35.640;139.748;2023-05-20T01:08:23;100800.57;;;23.29;46.30
64115;BME280;62188;35.640;139.748;2023-05-20T01:10:46;100804.23;;;23.38;46.50
64115;BME280;62188;35.640;139.748;2023-05-20T01:13:16;100806.63;;;23.40;46.31
64115;BME280;62188;35.640;139.748;2023-05-20T01:15:35;100810.54;;;23.41;46.24
64115;BME280;62188;35.640;139.748;2023-05-20T01:18:02;100811.78;;;23.18;46.33
64115;BME280;62188;35.640;139.748;2023-05-20T01:20:26;100811.90;;;23.24;46.38
64115;BME280;62188;35.640;139.748;2023-05-20T01:22:55;100810.77;;;23.60;46.39
64115;BME280;62188;35.640;139.748;2023-05-20T01:25:17;100815.43;;;23.52;47.09
64115;BME280;62188;35.640;139.748;2023-05-20T01:27:42;100818.86;;;23.47;46.81
64115;BME280;62188;35.640;139.748;2023-05-20T01:30:08;100824.01;;;23.39;47.19
64115;BME280;62188;35.640;139.748;2023-05-20T01:32:37;100822.13;;;23.44;47.19
64115;BME280;62188;35.640;139.748;2023-05-20T01:34:59;100827.47;;;23.37;47.27
64115;BME280;62188;35.640;139.748;2023-05-20T01:37:25;100830.63;;;23.22;47.66
64115;BME280;62188;35.640;139.748;2023-05-20T01:39:51;100837.16;;;23.53;47.94
64115;BME280;62188;35.640;139.748;2023-05-20T01:42:15;100837.75;;;23.28;47.85
64115;BME280;62188;35.640;139.748;2023-05-20T01:44:41;100838.06;;;23.06;48.03
64115;BME280;62188;35.640;139.748;2023-05-20T01:47:06;100834.53;;;23.42;48.04
64115;BME280;62188;35.640;139.748;2023-05-20T01:49:31;100834.81;;;23.35;48.14
64115;BME280;62188;35.640;139.748;2023-05-20T01:51:57;100831.53;;;23.50;49.19
64115;BME280;62188;35.640;139.748;2023-05-20T01:54:23;100831.00;;;23.69;49.50
64115;BME280;62188;35.640;139.748;2023-05-20T01:56:48;100832.08;;;23.69;48.80
64115;BME280;62188;35.640;139.748;2023-05-20T01:59:13;100830.77;;;23.77;48.48
64115;BME280;62188;35.640;139.748;2023-05-20T02:01:38;100829.38;;;23.62;48.24
64115;BME280;62188;35.640;139.748;2023-05-20T02:04:04;100832.08;;;23.77;47.83
64115;BME280;62188;35.640;139.748;2023-05-20T02:06:30;100836.98;;;23.92;47.21
64115;BME280;62188;35.640;139.748;2023-05-20T02:08:55;100832.20;;;23.98;47.49
64115;BME280;62188;35.640;139.748;2023-05-20T02:11:21;100832.55;;;23.60;46.77
64115;BME280;62188;35.640;139.748;2023-05-20T02:13:46;100828.87;;;23.42;46.89
64115;BME280;62188;35.640;139.748;2023-05-20T02:16:11;100829.64;;;23.63;46.37
64115;BME280;62188;35.640;139.748;2023-05-20T02:18:37;100833.93;;;23.31;46.84
64115;BME280;62188;35.640;139.748;2023-05-20T02:21:03;100831.77;;;23.56;46.88
64115;BME280;62188;35.640;139.748;2023-05-20T02:23:27;100829.14;;;23.67;46.66
64115;BME280;62188;35.640;139.748;2023-05-20T02:25:52;100830.70;;;23.89;46.36
64115;BME280;62188;35.640;139.748;2023-05-20T02:28:18;100829.85;;;23.86;45.67
64115;BME280;62188;35.640;139.748;2023-05-20T02:30:45;100827.38;;;24.03;45.54
64115;BME280;62188;35.640;139.748;2023-05-20T02:33:11;100827.15;;;23.81;46.01
64115;BME280;62188;35.640;139.748;2023-05-20T02:35:35;100822.16;;;24.11;46.00
64115;BME280;62188;35.640;139.748;2023-05-20T02:38:00;100816.52;;;24.00;45.04
64115;BME280;62188;35.640;139.748;2023-05-20T02:40:25;100819.94;;;24.46;44.95
64115;BME280;62188;35.640;139.748;2023-05-20T02:42:50;100811.49;;;24.24;44.70
64115;BME280;62188;35.640;139.748;2023-05-20T02:45:16;100802.38;;;24.41;44.56
64115;BME280;62188;35.640;139.748;2023-05-20T02:47:41;100799.08;;;23.94;44.85
64115;BME280;62188;35.640;139.748;2023-05-20T02:50:07;100801.73;;;24.08;44.75
64115;BME280;62188;35.640;139.748;2023-05-20T02:52:32;100806.35;;;23.84;44.41
64115;BME280;62188;35.640;139.748;2023-05-20T02:54:59;100803.05;;;23.94;44.41
64115;BME280;62188;35.640;139.748;2023-05-20T02:57:23;100803.29;;;23.87;44.58
64115;BME280;62188;35.640;139.748;2023-05-20T02:59:50;100795.73;;;23.79;44.40
64115;BME280;62188;35.640;139.748;2023-05-20T03:02:14;100795.46;;;24.08;44.37
64115;BME280;62188;35.640;139.748;2023-05-20T03:04:39;100790.67;;;24.11;44.47
64115;BME280;62188;35.640;139.748;2023-05-20T03:07:05;100790.21;;;24.25;44.27
64115;BME280;62188;35.640;139.748;2023-05-20T03:09:30;100782.63;;;24.18;44.09
64115;BME280;62188;35.640;139.748;2023-05-20T03:11:56;100782.01;;;23.82;44.46
64115;BME280;62188;35.640;139.748;2023-05-20T03:14:21;100779.68;;;23.93;44.35
64115;BME280;62188;35.640;139.748;2023-05-20T03:16:47;100778.38;;;24.00;44.36
64115;BME280;62188;35.640;139.748;2023-05-20T03:19:12;100773.75;;;24.04;44.07
64115;BME280;62188;35.640;139.748;2023-05-20T03:21:37;100766.43;;;23.84;43.98
64115;BME280;62188;35.640;139.748;2023-05-20T03:24:03;100763.11;;;24.01;44.23
64115;BME280;62188;35.640;139.748;2023-05-20T03:26:28;100763.03;;;23.78;44.22
64115;BME280;62188;35.640;139.748;2023-05-20T03:28:53;100758.54;;;23.89;44.00
64115;BME280;62188;35.640;139.748;2023-05-20T03:31:19;100761.17;;;24.00;44.41
64115;BME280;62188;35.640;139.748;2023-05-20T03:33:45;100755.59;;;23.90;44.22
64115;BME280;62188;35.640;139.748;2023-05-20T03:36:10;100757.13;;;24.48;43.81
64115;BME280;62188;35.640;139.748;2023-05-20T03:38:36;100756.08;;;24.35;43.66
64115;BME280;62188;35.640;139.748;2023-05-20T03:41:01;100757.56;;;24.16;43.85
64115;BME280;62188;35.640;139.748;2023-05-20T03:43:26;100759.80;;;24.34;43.35
64115;BME280;62188;35.640;139.748;2023-05-20T03:45:52;100758.25;;;24.39;43.22
64115;BME280;62188;35.640;139.748;2023-05-20T03:48:17;100757.48;;;24.37;43.15
64115;BME280;62188;35.640;139.748;2023-05-20T03:50:43;100753.56;;;24.54;43.22
64115;BME280;62188;35.640;139.748;2023-05-20T03:53:08;100747.84;;;25.01;43.25
64115;BME280;62188;35.640;139.748;2023-05-20T03:55:34;100745.34;;;25.08;42.86
64115;BME280;62188;35.640;139.748;2023-05-20T03:57:59;100751.02;;;25.09;42.34
64115;BME280;62188;35.640;139.748;2023-05-20T04:00:24;100751.45;;;24.83;42.31
64115;BME280;62188;35.640;139.748;2023-05-20T04:02:50;100752.74;;;24.72;42.34
64115;BME280;62188;35.640;139.748;2023-05-20T04:05:16;100750.18;;;24.89;42.49
64115;BME280;62188;35.640;139.748;2023-05-20T04:07:41;100749.03;;;25.00;42.19
64115;BME280;62188;35.640;139.748;2023-05-20T04:10:07;100751.61;;;25.28;42.18
64115;BME280;62188;35.640;139.748;2023-05-20T04:12:32;100755.50;;;25.38;41.70
64115;BME280;62188;35.640;139.748;2023-05-20T04:14:58;100753.05;;;25.12;41.73
64115;BME280;62188;35.640;139.748;2023-05-20T04:17:22;100752.42;;;25.16;41.32
64115;BME280;62188;35.640;139.748;2023-05-20T04:19:48;100757.52;;;24.91;41.40
64115;BME280;62188;35.640;139.748;2023-05-20T04:22:14;100755.46;;;24.98;41.26
64115;BME280;62188;35.640;139.748;2023-05-20T04:24:39;100753.19;;;25.12;41.22
64115;BME280;62188;35.640;139.748;2023-05-20T04:27:04;100751.67;;;25.35;41.07
64115;BME280;62188;35.640;139.748;2023-05-20T04:29:30;100753.51;;;25.05;41.10
64115;BME280;62188;35.640;139.748;2023-05-20T04:31:55;100757.19;;;25.08;41.01
64115;BME280;62188;35.640;139.748;2023-05-20T04:34:20;100752.24;;;25.33;40.83
64115;BME280;62188;35.640;139.748;2023-05-20T04:36:46;100753.02;;;25.08;40.60
64115;BME280;62188;35.640;139.748;2023-05-20T04:39:12;100754.57;;;25.38;40.72
64115;BME280;62188;35.640;139.748;2023-05-20T04:41:36;100755.18;;;25.16;40.76
64115;BME280;62188;35.640;139.748;2023-05-20T04:44:02;100755.92;;;25.07;40.77
64115;BME280;62188;35.640;139.748;2023-05-20T04:46:28;100755.87;;;25.41;41.00
64115;BME280;62188;35.640;139.748;2023-05-20T04:48:53;100758.38;;;25.44;40.69
64115;BME280;62188;35.640;139.748;2023-05-20T04:51:19;100756.53;;;25.21;40.73
64115;BME280;62188;35.640;139.748;2023-05-20T04:53:44;100753.88;;;25.09;40.85
64115;BME280;62188;35.640;139.748;2023-05-20T04:56:09;100758.98;;;25.60;40.69
64115;BME280;62188;35.640;139.748;2023-05-20T04:58:34;100759.36;;;25.06;40.88
64115;BME280;62188;35.640;139.748;2023-05-20T05:01:00;100757.59;;;25.55;40.92
64115;BME280;62188;35.640;139.748;2023-05-20T05:03:25;100755.76;;;25.04;40.61
64115;BME280;62188;35.640;139.748;2023-05-20T05:05:54;100751.74;;;25.01;40.67
64115;BME280;62188;35.640;139.748;2023-05-20T05:08:16;100756.92;;;24.69;40.89
64115;BME280;62188;35.640;139.748;2023-05-20T05:10:41;100764.70;;;24.74;41.34
64115;BME280;62188;35.640;139.748;2023-05-20T05:13:06;100769.85;;;24.63;41.57
64115;BME280;62188;35.640;139.748;2023-05-20T05:15:32;100771.38;;;24.57;41.64
64115;BME280;62188;35.640;139.748;2023-05-20T05:17:58;100774.00;;;24.60;41.88
64115;BME280;62188;35.640;139.748;2023-05-20T05:20:23;100774.35;;;24.68;41.72
64115;BME280;62188;35.640;139.748;2023-05-20T05:22:50;100771.08;;;24.75;41.72
64115;BME280;62188;35.640;139.748;2023-05-20T05:25:14;100770.01;;;24.57;41.68
64115;BME280;62188;35.640;139.748;2023-05-20T05:27:40;100766.65;;;24.93;41.75
64115;BME280;62188;35.640;139.748;2023-05-20T05:30:06;100763.84;;;24.63;41.70
64115;BME280;62188;35.640;139.748;2023-05-20T05:32:30;100767.80;;;25.14;41.33
64115;BME280;62188;35.640;139.748;2023-05-20T05:34:55;100767.02;;;24.96;41.18
64115;BME280;62188;35.640;139.748;2023-05-20T05:37:21;100764.15;;;25.22;40.63
64115;BME280;62188;35.640;139.748;2023-05-20T05:39:46;100764.31;;;24.91;40.64
64115;BME280;62188;35.640;139.748;2023-05-20T05:42:12;100761.63;;;25.23;40.70
64115;BME280;62188;35.640;139.748;2023-05-20T05:44:38;100761.78;;;25.10;40.86
64115;BME280;62188;35.640;139.748;2023-05-20T05:47:03;100756.48;;;24.73;40.62
64115;BME280;62188;35.640;139.748;2023-05-20T05:49:29;100754.62;;;25.07;40.59
64115;BME280;62188;35.640;139.748;2023-05-20T05:51:53;100758.53;;;24.92;40.71
64115;BME280;62188;35.640;139.748;2023-05-20T05:54:19;100764.68;;;24.63;40.91
64115;BME280;62188;35.640;139.748;2023-05-20T05:56:45;100763.88;;;24.93;40.95
64115;BME280;62188;35.640;139.748;2023-05-20T05:59:10;100771.07;;;25.11;40.91
64115;BME280;62188;35.640;139.748;2023-05-20T06:01:35;100774.89;;;25.13;40.86
64115;BME280;62188;35.640;139.748;2023-05-20T06:04:01;100773.37;;;24.73;40.68
64115;BME280;62188;35.640;139.748;2023-05-20T06:06:26;100777.73;;;25.24;40.79
64115;BME280;62188;35.640;139.748;2023-05-20T06:08:51;100778.54;;;25.25;40.74
64115;BME280;62188;35.640;139.748;2023-05-20T06:11:17;100776.09;;;25.23;40.66
64115;BME280;62188;35.640;139.748;2023-05-20T06:13:42;100782.17;;;24.78;40.59
64115;BME280;62188;35.640;139.748;2023-05-20T06:16:08;100785.85;;;25.31;40.64
64115;BME280;62188;35.640;139.748;2023-05-20T06:18:33;100792.01;;;25.34;40.63
64115;BME280;62188;35.640;139.748;2023-05-20T06:20:59;100783.45;;;25.35;40.37
64115;BME280;62188;35.640;139.748;2023-05-20T06:23:24;100780.28;;;24.96;40.16
64115;BME280;62188;35.640;139.748;2023-05-20T06:25:50;100777.14;;;25.01;40.45
64115;BME280;62188;35.640;139.748;2023-05-20T06:28:15;100779.95;;;24.81;40.55
64115;BME280;62188;35.640;139.748;2023-05-20T06:30:40;100774.66;;;25.19;40.59
64115;BME280;62188;35.640;139.748;2023-05-20T06:33:05;100773.15;;;25.24;40.76
64115;BME280;62188;35.640;139.748;2023-05-20T06:35:31;100777.50;;;24.92;40.60
64115;BME280;62188;35.640;139.748;2023-05-20T06:37:56;100783.77;;;24.98;40.13
64115;BME280;62188;35.640;139.748;2023-05-20T06:40:22;100783.28;;;25.04;40.10
64115;BME280;62188;35.640;139.748;2023-05-20T06:42:47;100781.84;;;25.56;40.23
64115;BME280;62188;35.640;139.748;2023-05-20T06:45:12;100778.04;;;25.39;39.69
64115;BME280;62188;35.640;139.748;2023-05-20T06:47:38;100775.23;;;25.28;39.83
64115;BME280;62188;35.640;139.748;2023-05-20T06:50:03;100768.30;;;25.19;39.83
64115;BME280;62188;35.640;139.748;2023-05-20T06:52:29;100767.92;;;25.17;39.79
64115;BME280;62188;35.640;139.748;2023-05-20T06:54:54;100768.82;;;24.76;39.69
64115;BME280;62188;35.640;139.748;2023-05-20T06:57:19;100768.14;;;24.92;39.74
64115;BME280;62188;35.640;139.748;2023-05-20T06:59:45;100767.45;;;25.14;40.07
64115;BME280;62188;35.640;139.748;2023-05-20T07:02:11;100766.01;;;24.76;40.25
64115;BME280;62188;35.640;139.748;2023-05-20T07:04:35;100764.95;;;24.87;40.16
64115;BME280;62188;35.640;139.748;2023-05-20T07:07:00;100770.12;;;24.87;39.92
64115;BME280;62188;35.640;139.748;2023-05-20T07:09:26;100771.03;;;24.93;39.87
64115;BME280;62188;35.640;139.748;2023-05-20T07:11:52;100771.67;;;24.86;39.98
64115;BME280;62188;35.640;139.748;2023-05-20T07:14:17;100770.92;;;24.87;39.98
64115;BME280;62188;35.640;139.748;2023-05-20T07:16:43;100771.74;;;24.84;39.98
64115;BME280;62188;35.640;139.748;2023-05-20T07:19:07;100771.90;;;25.41;39.98
64115;BME280;62188;35.640;139.748;2023-05-20T07:21:33;100779.47;;;24.94;39.78
64115;BME280;62188;35.640;139.748;2023-05-20T07:23:58;100782.67;;;25.17;39.72
64115;BME280;62188;35.640;139.748;2023-05-20T07:26:24;100786.01;;;24.95;39.86
64115;BME280;62188;35.640;139.748;2023-05-20T07:28:49;100790.00;;;25.01;39.46
64115;BME280;62188;35.640;139.748;2023-05-20T07:31:14;100793.97;;;25.15;39.69
64115;BME280;62188;35.640;139.748;2023-05-20T07:33:40;100793.48;;;25.01;39.74
64115;BME280;62188;35.640;139.748;2023-05-20T07:36:06;100788.59;;;24.49;39.71
64115;BME280;62188;35.640;139.748;2023-05-20T07:38:31;100793.88;;;24.93;39.70
64115;BME280;62188;35.640;139.748;2023-05-20T07:40:56;100791.64;;;24.48;39.78
64115;BME280;62188;35.640;139.748;2023-05-20T07:43:22;100791.46;;;24.56;39.87
64115;BME280;62188;35.640;139.748;2023-05-20T07:45:47;100794.51;;;24.79;40.03
64115;BME280;62188;35.640;139.748;2023-05-20T07:48:13;100795.58;;;24.93;39.98
64115;BME280;62188;35.640;139.748;2023-05-20T07:50:37;100798.87;;;24.79;40.07
64115;BME280;62188;35.640;139.748;2023-05-20T07:53:04;100797.47;;;25.12;39.94
64115;BME280;62188;35.640;139.748;2023-05-20T07:55:29;100802.19;;;24.62;39.68
64115;BME280;62188;35.640;139.748;2023-05-20T07:57:54;100803.97;;;24.81;39.45
64115;BME280;62188;35.640;139.748;2023-05-20T08:00:20;100807.45;;;24.97;39.51
64115;BME280;62188;35.640;139.748;2023-05-20T08:02:45;100808.69;;;24.45;39.59
64115;BME280;62188;35.640;139.748;2023-05-20T08:05:10;100812.54;;;24.84;39.91
64115;BME280;62188;35.640;139.748;2023-05-20T08:07:36;100815.55;;;24.72;40.04
64115;BME280;62188;35.640;139.748;2023-05-20T08:10:01;100814.30;;;24.96;39.83
64115;BME280;62188;35.640;139.748;2023-05-20T08:12:27;100817.13;;;24.91;39.44
64115;BME280;62188;35.640;139.748;2023-05-20T08:14:53;100821.12;;;24.90;39.45
64115;BME280;62188;35.640;139.748;2023-05-20T08:17:17;100822.77;;;24.83;39.40
64115;BME280;62188;35.640;139.748;2023-05-20T08:19:43;100819.74;;;24.46;39.32
64115;BME280;62188;35.640;139.748;2023-05-20T08:22:08;100814.49;;;24.64;39.36
64115;BME280;62188;35.640;139.748;2023-05-20T08:24:33;100816.61;;;24.49;39.67
64115;BME280;62188;35.640;139.748;2023-05-20T08:26:58;100818.49;;;24.45;39.91
64115;BME280;62188;35.640;139.748;2023-05-20T08:29:24;100820.12;;;24.55;39.87
64115;BME280;62188;35.640;139.748;2023-05-20T08:31:49;100818.37;;;24.58;39.98
64115;BME280;62188;35.640;139.748;2023-05-20T08:34:15;100820.72;;;24.56;39.96
64115;BME280;62188;35.640;139.748;2023-05-20T08:36:40;100816.96;;;24.48;39.87
64115;BME280;62188;35.640;139.748;2023-05-20T08:39:06;100808.57;;;24.52;39.72
64115;BME280;62188;35.640;139.748;2023-05-20T08:41:31;100807.17;;;24.48;39.35
64115;BME280;62188;35.640;139.748;2023-05-20T08:43:58;100813.02;;;24.45;39.32
64115;BME280;62188;35.640;139.748;2023-05-20T08:46:23;100814.58;;;24.45;39.47
64115;BME280;62188;35.640;139.748;2023-05-20T08:48:48;100817.27;;;24.44;39.27
64115;BME280;62188;35.640;139.748;2023-05-20T08:51:15;100817.48;;;24.38;39.46
64115;BME280;62188;35.640;139.748;2023-05-20T08:53:38;100818.88;;;24.43;39.54
64115;BME280;62188;35.640;139.748;2023-05-20T08:56:04;100827.56;;;24.50;39.48
64115;BME280;62188;35.640;139.748;2023-05-20T08:58:30;100828.36;;;24.56;39.50
64115;BME280;62188;35.640;139.748;2023-05-20T09:00:54;100828.94;;;24.62;39.33
64115;BME280;62188;35.640;139.748;2023-05-20T09:03:20;100832.55;;;24.62;39.42
64115;BME280;62188;35.640;139.748;2023-05-20T09:05:45;100837.58;;;24.38;39.38
64115;BME280;62188;35.640;139.748;2023-05-20T09:08:11;100835.09;;;24.60;39.41
64115;BME280;62188;35.640;139.748;2023-05-20T09:10:37;100836.06;;;24.57;39.29
64115;BME280;62188;35.640;139.748;2023-05-20T09:13:03;100836.83;;;24.47;39.30
64115;BME280;62188;35.640;139.748;2023-05-20T09:15:27;100837.97;;;24.12;39.50
64115;BME280;62188;35.640;139.748;2023-05-20T09:17:53;100836.41;;;24.24;39.54
64115;BME280;62188;35.640;139.748;2023-05-20T09:20:20;100839.43;;;24.30;39.74
64115;BME280;62188;35.640;139.748;2023-05-20T09:22:44;100846.43;;;24.35;39.59
64115;BME280;62188;35.640;139.748;2023-05-20T09:25:09;100848.94;;;24.32;39.64
64115;BME280;62188;35.640;139.748;2023-05-20T09:27:35;100853.32;;;24.29;39.81
64115;BME280;62188;35.640;139.748;2023-05-20T09:30:00;100856.23;;;24.26;39.85
64115;BME280;62188;35.640;139.748;2023-05-20T09:32:25;100861.47;;;24.20;39.79
64115;BME280;62188;35.640;139.748;2023-05-20T09:34:50;100865.07;;;24.40;40.00
64115;BME280;62188;35.640;139.748;2023-05-20T09:37:19;100864.56;;;24.02;39.89
64115;BME280;62188;35.640;139.748;2023-05-20T09:39:47;100869.58;;;23.95;40.08
64115;BME280;62188;35.640;139.748;2023-05-20T09:42:09;100870.84;;;23.83;40.13
64115;BME280;62188;35.640;139.748;2023-05-20T09:44:33;100877.14;;;23.82;40.37
64115;BME280;62188;35.640;139.748;2023-05-20T09:46:58;100879.28;;;23.86;40.42
64115;BME280;62188;35.640;139.748;2023-05-20T09:49:24;100881.73;;;23.81;40.33
64115;BME280;62188;35.640;139.748;2023-05-20T09:51:49;100881.33;;;23.78;40.52
64115;BME280;62188;35.640;139.748;2023-05-20T09:54:14;100885.08;;;23.96;40.71
64115;BME280;62188;35.640;139.748;2023-05-20T09:56:41;100889.76;;;23.96;40.65
64115;BME280;62188;35.640;139.748;2023-05-20T09:59:05;100891.43;;;24.24;40.71
64115;BME280;62188;35.640;139.748;2023-05-20T10:01:30;100902.20;;;23.84;40.69
64115;BME280;62188;35.640;139.748;2023-05-20T10:03:56;100908.79;;;23.83;40.62
64115;BME280;62188;35.640;139.748;2023-05-20T10:06:35;100907.74;;;24.08;40.62
64115;BME280;62188;35.640;139.748;2023-05-20T10:09:08;100909.14;;;23.77;40.60
64115;BME280;62188;35.640;139.748;2023-05-20T10:11:18;100911.91;;;23.96;40.69
64115;BME280;62188;35.640;139.748;2023-05-20T10:13:52;100910.74;;;23.62;40.46
64115;BME280;62188;35.640;139.748;2023-05-20T10:16:12;100917.38;;;23.67;40.59
64115;BME280;62188;35.640;139.748;2023-05-20T10:18:38;100920.30;;;23.58;40.98
64115;BME280;62188;35.640;139.748;2023-05-20T10:20:53;100920.57;;;23.65;40.78
64115;BME280;62188;35.640;139.748;2023-05-20T10:23:23;100922.94;;;23.60;40.81
64115;BME280;62188;35.640;139.748;2023-05-20T10:25:50;100928.34;;;23.55;40.80
64115;BME280;62188;35.640;139.748;2023-05-20T10:28:10;100932.27;;;23.77;40.79
64115;BME280;62188;35.640;139.748;2023-05-20T10:30:35;100941.22;;;23.53;40.79
64115;BME280;62188;35.640;139.748;2023-05-20T10:33:04;100941.77;;;23.29;40.87
64115;BME280;62188;35.640;139.748;2023-05-20T10:35:26;100939.94;;;23.59;40.89
64115;BME280;62188;35.640;139.748;2023-05-20T10:37:52;100942.61;;;23.63;40.84
64115;BME280;62188;35.640;139.748;2023-05-20T10:40:19;100947.41;;;23.43;40.84
64115;BME280;62188;35.640;139.748;2023-05-20T10:42:42;100950.10;;;23.96;40.77
64115;BME280;62188;35.640;139.748;2023-05-20T10:45:08;100954.43;;;23.76;40.68
64115;BME280;62188;35.640;139.748;2023-05-20T10:47:34;100952.98;;;23.75;40.65
64115;BME280;62188;35.640;139.748;2023-05-20T10:49:58;100956.23;;;23.96;40.62
64115;BME280;62188;35.640;139.748;2023-05-20T10:52:24;100959.06;;;23.82;40.87
64115;BME280;62188;35.640;139.748;2023-05-20T10:54:57;100964.24;;;23.65;41.25
64115;BME280;62188;35.640;139.748;2023-05-20T10:57:15;100968.04;;;23.53;41.26
64115;BME280;62188;35.640;139.748;2023-05-20T10:59:41;100968.36;;;23.19;40.96
64115;BME280;62188;35.640;139.748;2023-05-20T11:02:06;100971.60;;;23.43;41.04
64115;BME280;62188;35.640;139.748;2023-05-20T11:04:32;100973.59;;;23.72;41.06
64115;BME280;62188;35.640;139.748;2023-05-20T11:06:57;100977.51;;;23.26;41.25
64115;BME280;62188;35.640;139.748;2023-05-20T11:09:22;100976.56;;;23.54;41.68
64115;BME280;62188;35.640;139.748;2023-05-20T11:11:48;100976.13;;;23.57;41.69
64115;BME280;62188;35.640;139.748;2023-05-20T11:14:13;100980.57;;;23.59;41.59
64115;BME280;62188;35.640;139.748;2023-05-20T11:16:38;100985.58;;;23.61;41.42
64115;BME280;62188;35.640;139.748;2023-05-20T11:19:04;100989.05;;;23.60;41.44
64115;BME280;62188;35.640;139.748;2023-05-20T11:21:29;100989.99;;;23.90;41.27
64115;BME280;62188;35.640;139.748;2023-05-20T11:23:55;100994.78;;;23.92;41.33
64115;BME280;62188;35.640;139.748;2023-05-20T11:26:20;100998.03;;;23.66;41.41
64115;BME280;62188;35.640;139.748;2023-05-20T11:28:45;101005.58;;;23.94;41.39
64115;BME280;62188;35.640;139.748;2023-05-20T11:31:11;101012.91;;;23.73;41.27
64115;BME280;62188;35.640;139.748;2023-05-20T11:33:39;101015.45;;;23.74;41.59
64115;BME280;62188;35.640;139.748;2023-05-20T11:36:02;101015.55;;;23.72;41.53
64115;BME280;62188;35.640;139.748;2023-05-20T11:38:27;101020.77;;;23.71;41.56
64115;BME280;62188;35.640;139.748;2023-05-20T11:40:54;101024.14;;;23.92;41.27
64115;BME280;62188;35.640;139.748;2023-05-20T11:43:19;101029.04;;;23.71;42.19
64115;BME280;62188;35.640;139.748;2023-05-20T11:45:46;101036.64;;;23.35;41.93
64115;BME280;62188;35.640;139.748;2023-05-20T11:48:10;101040.68;;;23.86;42.49
64115;BME280;62188;35.640;139.748;2023-05-20T11:50:37;101046.07;;;23.57;42.46
64115;BME280;62188;35.640;139.748;2023-05-20T11:53:02;101047.18;;;23.50;41.79
64115;BME280;62188;35.640;139.748;2023-05-20T11:55:26;101050.49;;;23.48;42.13
64115;BME280;62188;35.640;139.748;2023-05-20T11:57:53;101049.27;;;23.39;42.34
64115;BME280;62188;35.640;139.748;2023-05-20T12:00:18;101046.36;;;23.56;42.02
64115;BME280;62188;35.640;139.748;2023-05-20T12:02:43;101044.64;;;23.19;42.13
64115;BME280;62188;35.640;139.748;2023-05-20T12:05:08;101044.46;;;23.39;42.74
64115;BME280;62188;35.640;139.748;2023-05-20T12:07:33;101042.68;;;23.19;42.56
64115;BME280;62188;35.640;139.748;2023-05-20T12:09:59;101045.33;;;23.20;42.45
64115;BME280;62188;35.640;139.748;2023-05-20T12:12:24;101044.62;;;23.42;42.36
64115;BME280;62188;35.640;139.748;2023-05-20T12:14:49;101041.98;;;23.12;42.49
64115;BME280;62188;35.640;139.748;2023-05-20T12:17:14;101042.69;;;23.30;42.56
64115;BME280;62188;35.640;139.748;2023-05-20T12:19:40;101038.25;;;23.32;42.42